Time;durP1;ratioP1;P1;durP2;ratioP2;P2;SDS_P1;SDS_P2;PMS_P1;PMS_P2;Temp;Humidity;BMP_temperature;BMP_pressure;BME280_temperature;BME280_humidity;BME280_pressure;Samples;Min_cycle;Max_cycle;Signal;HPM_P1;HPM_P2
2023/08/11 00:04:14;;;;;;;11.67;6.00;;;;;;;16.45;100.00;101256.46;4919412;57;1242541;-66
2023/08/11 00:09:19;;;;;;;14.73;5.93;;;;;;;16.33;100.00;101251.75;4969707;57;1258358;-65
2023/08/11 00:14:26;;;;;;;8.70;5.00;;;;;;;16.21;100.00;101250.16;5024505;56;1259969;-65
2023/08/11 00:19:32;;;;;;;11.87;4.93;;;;;;;16.18;100.00;101245.12;5003098;57;1242176;-66
2023/08/11 00:24:37;;;;;;;10.82;6.22;;;;;;;16.17;100.00;101244.77;5036990;56;1258743;-65
2023/08/11 00:29:43;;;;;;;9.85;5.42;;;;;;;16.05;100.00;101243.16;5084458;56;1180126;-65
2023/08/11 00:34:49;;;;;;;10.93;5.15;;;;;;;15.98;100.00;101246.88;5050472;56;1249167;-66
2023/08/11 00:39:54;;;;;;;10.70;4.77;;;;;;;15.94;100.00;101245.46;5059076;55;1250461;-64
2023/08/11 00:45:03;;;;;;;14.30;5.20;;;;;;;15.84;100.00;101247.27;5113346;56;1143039;-65
2023/08/11 00:50:10;;;;;;;8.10;4.43;;;;;;;15.76;100.00;101252.41;5127193;56;1242531;-65
2023/08/11 00:55:18;;;;;;;8.73;4.10;;;;;;;15.70;100.00;101248.97;5108045;55;1241107;-65
2023/08/11 01:00:24;;;;;;;11.93;4.13;;;;;;;15.64;100.00;101242.82;5127713;55;1141032;-65
2023/08/11 01:05:33;;;;;;;7.53;4.00;;;;;;;15.61;100.00;101248.41;5085152;56;1142992;-66
2023/08/11 01:11:03;;;;;;;5.20;3.73;;;;;;;15.57;100.00;101249.69;4964825;57;1145090;-66
2023/08/11 01:16:11;;;;;;;6.77;3.80;;;;;;;15.49;100.00;101251.14;5054699;56;1140839;-65
2023/08/11 01:21:18;;;;;;;12.70;4.40;;;;;;;15.42;100.00;101250.00;5067658;57;1141043;-65
2023/08/11 01:26:24;;;;;;;7.67;3.43;;;;;;;15.33;100.00;101244.60;5047078;56;1142988;-65
2023/08/11 01:31:30;;;;;;;6.20;3.60;;;;;;;15.22;100.00;101248.69;5064954;56;1233784;-65
2023/08/11 01:36:37;;;;;;;6.45;3.45;;;;;;;15.14;100.00;101248.84;5080131;56;1173528;-67
2023/08/11 01:41:44;;;;;;;8.64;2.56;;;;;;;15.13;100.00;101243.63;5038651;57;1225160;-64
2023/08/11 01:46:55;;;;;;;5.20;3.10;;;;;;;15.07;100.00;101243.69;5055874;56;1227575;-66
2023/08/11 01:52:03;;;;;;;6.67;3.67;;;;;;;14.81;100.00;101241.54;5132913;56;1148591;-65
2023/08/11 01:57:09;;;;;;;8.57;3.37;;;;;;;14.81;100.00;101241.54;4974139;58;1140765;-65
2023/08/11 02:02:15;;;;;;;6.03;2.93;;;;;;;14.76;100.00;101255.23;5138802;55;1140866;-66
2023/08/11 02:07:20;;;;;;;7.00;3.10;;;;;;;14.74;100.00;101249.19;4935812;57;1140883;-66
2023/08/11 02:12:26;;;;;;;4.73;3.10;;;;;;;14.70;100.00;101249.91;4946213;58;1141199;-65
2023/08/11 02:17:32;;;;;;;5.40;2.90;;;;;;;14.59;100.00;101253.97;4994513;57;1140725;-66
2023/08/11 02:22:38;;;;;;;4.93;3.27;;;;;;;14.53;100.00;101249.62;5003853;58;1140820;-66
2023/08/11 02:27:44;;;;;;;11.57;2.87;;;;;;;14.46;100.00;101249.30;5003862;58;1140751;-65
2023/08/11 02:32:50;;;;;;;11.48;3.17;;;;;;;14.41;100.00;101253.66;5009086;58;1142928;-67
2023/08/11 02:37:55;;;;;;;10.32;2.87;;;;;;;14.36;100.00;101254.48;5023863;57;1142950;-65
2023/08/11 02:43:02;;;;;;;5.07;2.90;;;;;;;14.33;100.00;101258.75;5066821;57;1142949;-65
2023/08/11 02:48:07;;;;;;;4.40;3.10;;;;;;;14.33;100.00;101258.75;5044259;57;1140860;-65
2023/08/11 02:53:14;;;;;;;5.93;3.40;;;;;;;14.30;100.00;101260.80;5021015;57;1140785;-65
2023/08/11 02:58:19;;;;;;;5.50;2.77;;;;;;;14.23;100.00;101251.61;5021538;57;1140780;-65
2023/08/11 03:03:25;;;;;;;3.23;2.37;;;;;;;14.07;100.00;101253.34;4941953;58;1140954;-66
2023/08/11 03:08:31;;;;;;;9.97;3.43;;;;;;;13.91;100.00;101245.74;5033522;57;1140940;-65
2023/08/11 03:13:38;;;;;;;8.33;2.93;;;;;;;13.81;100.00;101250.11;4829850;58;1150029;-67
2023/08/11 03:18:44;;;;;;;6.13;2.93;;;;;;;13.72;100.00;101257.02;4841500;59;1140812;-66
2023/08/11 03:23:50;;;;;;;6.75;2.90;;;;;;;13.73;100.00;101253.87;5008199;57;1140915;-65
2023/08/11 03:28:57;;;;;;;12.43;3.37;;;;;;;13.69;100.00;101253.27;4971217;57;1140726;-66
2023/08/11 03:34:04;;;;;;;3.20;2.70;;;;;;;13.68;100.00;101257.37;4985425;57;1142795;-66
2023/08/11 03:39:10;;;;;;;7.30;3.13;;;;;;;13.54;100.00;101251.81;4980247;57;1140736;-66
2023/08/11 03:44:16;;;;;;;10.77;3.10;;;;;;;13.50;100.00;101253.49;5029072;57;1140781;-66
2023/08/11 03:49:22;;;;;;;11.47;3.03;;;;;;;13.44;100.00;101249.52;5041983;57;1143231;-66
2023/08/11 03:54:28;;;;;;;7.07;2.93;;;;;;;13.45;100.00;101255.17;5061800;57;1143190;-65
2023/08/11 03:59:34;;;;;;;10.33;3.53;;;;;;;13.48;100.00;101255.42;5040835;57;1141240;-66
2023/08/11 04:04:39;;;;;;;9.80;3.17;;;;;;;13.40;100.00;101250.72;5089123;56;1142929;-66
2023/08/11 04:09:46;;;;;;;9.50;3.50;;;;;;;13.28;100.00;101256.98;5079082;56;1140954;-66
2023/08/11 04:14:52;;;;;;;8.35;2.50;;;;;;;13.11;100.00;101252.94;5042400;57;1141000;-65
2023/08/11 04:19:59;;;;;;;5.83;2.43;;;;;;;13.12;100.00;101260.42;5042142;57;1140834;-66
2023/08/11 04:25:05;;;;;;;12.40;2.67;;;;;;;13.09;100.00;101255.34;5061709;57;1140922;-66
2023/08/11 04:30:12;;;;;;;7.73;3.00;;;;;;;13.11;100.00;101262.23;5086831;56;1142949;-66
2023/08/11 04:35:18;;;;;;;15.77;2.70;;;;;;;13.11;100.00;101268.02;4959218;58;1140794;-66
2023/08/11 04:40:26;;;;;;;7.90;3.10;;;;;;;12.96;100.00;101266.90;5146319;56;1142906;-66
2023/08/11 04:45:32;;;;;;;5.47;2.80;;;;;;;12.85;100.00;101268.64;4959536;58;1140851;-65
2023/08/11 04:50:37;;;;;;;6.93;2.70;;;;;;;12.88;100.00;101274.58;5126261;56;1140943;-66
2023/08/11 04:55:43;;;;;;;10.63;3.12;;;;;;;12.98;100.00;101279.58;4903889;58;1141122;-66
2023/08/11 05:00:50;;;;;;;4.47;2.80;;;;;;;13.11;100.00;101273.34;5061829;57;1142858;-65
2023/08/11 05:05:55;;;;;;;8.35;2.67;;;;;;;13.20;100.00;101277.48;5042309;56;1140970;-66
2023/08/11 05:11:01;;;;;;;20.57;3.00;;;;;;;13.29;100.00;101282.59;5042069;57;1140957;-65
2023/08/11 05:16:06;;;;;;;6.87;3.10;;;;;;;13.33;100.00;101276.05;5061985;57;1142957;-65
2023/08/11 05:21:15;;;;;;;7.33;2.63;;;;;;;13.35;100.00;101284.28;5042507;57;1140984;-66
2023/08/11 05:26:21;;;;;;;9.00;2.70;;;;;;;13.46;100.00;101290.56;5042453;57;1140979;-65
2023/08/11 05:31:27;;;;;;;6.53;2.80;;;;;;;13.60;100.00;101289.00;5062720;56;1140818;-66
2023/08/11 05:36:32;;;;;;;6.60;3.23;;;;;;;13.76;100.00;101284.66;5134812;56;1140813;-66
2023/08/11 05:41:38;;;;;;;6.00;3.83;;;;;;;13.87;100.00;101274.05;5141019;56;1140733;-66
2023/08/11 05:46:44;;;;;;;5.57;3.60;;;;;;;14.17;100.00;101272.08;5141007;56;1140780;-66
2023/08/11 05:51:49;;;;;;;4.80;2.92;;;;;;;14.47;100.00;101280.75;5159970;56;1140909;-67
2023/08/11 05:56:55;;;;;;;5.67;2.92;;;;;;;14.67;100.00;101283.94;5140242;56;1140742;-66
2023/08/11 06:02:01;;;;;;;8.30;2.80;;;;;;;14.91;100.00;101283.73;5127600;56;1140767;-66
2023/08/11 06:07:06;;;;;;;5.33;2.47;;;;;;;15.17;100.00;101282.38;5062088;57;1140811;-66
2023/08/11 06:12:12;;;;;;;7.73;2.37;;;;;;;15.35;100.00;101280.81;5042396;57;1140738;-66
2023/08/11 06:17:20;;;;;;;3.70;2.50;;;;;;;15.57;100.00;101280.34;5042434;56;1140714;-66
2023/08/11 06:22:25;;;;;;;10.67;2.70;;;;;;;15.88;100.00;101290.52;5062570;56;1140741;-65
2023/08/11 06:27:30;;;;;;;8.00;2.30;;;;;;;16.18;100.00;101292.67;5043254;56;1142844;-66
2023/08/11 06:32:36;;;;;;;10.03;2.63;;;;;;;16.43;100.00;101299.31;5066907;56;1140783;-66
2023/08/11 06:37:42;;;;;;;11.53;2.60;;;;;;;16.47;100.00;101309.23;5126980;56;1143055;-66
2023/08/11 06:42:47;;;;;;;4.67;2.12;;;;;;;16.70;100.00;101307.18;5146953;56;1143260;-66
2023/08/11 06:47:53;;;;;;;2.90;1.70;;;;;;;17.16;100.00;101306.47;5121338;56;1140892;-66
2023/08/11 06:52:59;;;;;;;4.67;2.37;;;;;;;17.53;100.00;101307.91;4941273;58;1141074;-66
2023/08/11 06:58:05;;;;;;;10.33;2.27;;;;;;;17.75;100.00;101310.73;5083894;56;1140775;-66
2023/08/11 07:03:10;;;;;;;3.23;1.90;;;;;;;17.92;100.00;101313.98;5042027;56;1142834;-67
2023/08/11 07:08:16;;;;;;;6.93;1.60;;;;;;;18.27;100.00;101314.60;5048594;56;1141097;-66
2023/08/11 07:13:22;;;;;;;6.57;2.27;;;;;;;18.31;100.00;101324.53;5079059;56;1140874;-65
2023/08/11 07:18:27;;;;;;;3.53;2.13;;;;;;;18.33;100.00;101326.07;5058125;56;1140744;-66
2023/08/11 07:23:33;;;;;;;5.73;2.00;;;;;;;18.41;100.00;101332.84;5137967;56;1140739;-66
2023/08/11 07:28:40;;;;;;;4.73;1.40;;;;;;;18.38;100.00;101329.12;5068687;56;1140759;-66
2023/08/11 07:33:45;;;;;;;3.93;1.20;;;;;;;18.34;100.00;101337.09;5106221;56;1140767;-66
2023/08/11 07:38:51;;;;;;;7.83;2.30;;;;;;;18.39;100.00;101342.86;5116752;56;1140819;-66
2023/08/11 07:43:57;;;;;;;2.98;1.57;;;;;;;18.48;99.93;101346.50;5058200;56;1140953;-66
2023/08/11 07:49:02;;;;;;;4.67;1.98;;;;;;;18.56;98.37;101349.25;5072800;56;1138877;-66
2023/08/11 07:54:08;;;;;;;4.37;1.25;;;;;;;18.61;97.12;101349.19;5053380;56;1138819;-66
2023/08/11 07:59:13;;;;;;;4.65;1.50;;;;;;;18.85;94.96;101353.11;5053393;57;1138736;-66
2023/08/11 08:04:19;;;;;;;9.63;1.55;;;;;;;19.00;88.40;101353.42;5115110;56;1138657;-66
2023/08/11 08:09:25;;;;;;;9.02;1.58;;;;;;;19.11;87.74;101347.81;5138175;56;1138604;-66
2023/08/11 08:14:31;;;;;;;3.35;1.10;;;;;;;19.36;90.12;101336.31;5121436;56;1138665;-66
2023/08/11 08:19:36;;;;;;;6.95;1.40;;;;;;;19.63;87.72;101338.87;5064502;56;1138815;-65
2023/08/11 08:24:43;;;;;;;4.34;1.44;;;;;;;19.83;83.25;101344.88;5081290;56;1138748;-68
2023/08/11 08:29:49;;;;;;;4.55;1.22;;;;;;;19.93;85.82;101339.39;5045977;56;1138869;-66
2023/08/11 08:34:54;;;;;;;7.70;1.57;;;;;;;20.16;87.29;101337.84;5105665;56;1138744;-66
2023/08/11 08:40:00;;;;;;;10.98;1.82;;;;;;;20.41;83.56;101336.11;5157767;56;1138647;-65
2023/08/11 08:45:07;;;;;;;1.77;1.10;;;;;;;20.59;83.71;101336.00;5136778;56;1140897;-66
2023/08/11 08:50:14;;;;;;;5.03;1.42;;;;;;;20.58;81.44;101339.19;5083488;56;1139000;-66
2023/08/11 08:55:20;;;;;;;4.58;1.52;;;;;;;20.47;80.61;101348.06;5072829;56;1138604;-66
2023/08/11 09:00:27;;;;;;;9.48;1.92;;;;;;;20.20;80.88;101351.77;5065128;56;1138770;-68
2023/08/11 09:05:37;;;;;;;3.98;1.22;;;;;;;20.11;83.54;101349.56;5050164;56;1138972;-66
2023/08/11 09:10:42;;;;;;;12.57;1.70;;;;;;;20.48;85.04;101346.53;5083912;56;1139067;-67
2023/08/11 09:15:48;;;;;;;3.02;1.07;;;;;;;20.83;83.71;101341.41;5083278;56;1140872;-66
2023/08/11 09:20:56;;;;;;;5.30;1.43;;;;;;;21.17;82.47;101340.44;5064748;56;1138824;-67
2023/08/11 09:26:02;;;;;;;4.17;1.33;;;;;;;21.35;76.26;101351.92;5046985;56;1142571;-66
2023/08/11 09:31:08;;;;;;;5.15;1.52;;;;;;;21.16;75.88;101352.21;5072729;56;1138762;-66
2023/08/11 09:36:14;;;;;;;3.22;1.47;;;;;;;21.30;76.27;101349.72;5065952;56;1138686;-66
2023/08/11 09:41:20;;;;;;;5.35;1.62;;;;;;;21.32;75.30;101349.55;5040909;57;1138822;-66
2023/08/11 09:46:25;;;;;;;5.67;1.15;;;;;;;21.49;78.17;101339.13;4937970;58;1139003;-65
2023/08/11 09:51:34;;;;;;;3.02;1.55;;;;;;;21.46;75.22;101344.00;5118979;56;1138724;-66
2023/08/11 09:56:43;;;;;;;5.12;1.47;;;;;;;21.22;73.21;101349.73;4940842;58;1138704;-65
2023/08/11 10:01:49;;;;;;;4.87;1.77;;;;;;;21.27;76.04;101354.09;5119126;56;1138914;-66
2023/08/11 10:06:59;;;;;;;3.27;1.67;;;;;;;21.33;77.16;101349.39;4947663;58;1138802;-66
2023/08/11 10:12:06;;;;;;;3.33;1.60;;;;;;;21.50;77.38;101337.27;5042654;57;1138679;-65
2023/08/11 10:17:14;;;;;;;9.35;1.50;;;;;;;21.44;76.21;101336.09;5042895;56;1138745;-65
2023/08/11 10:22:20;;;;;;;3.52;1.47;;;;;;;21.36;76.37;101346.38;5061936;57;1138868;-65
2023/08/11 10:27:27;;;;;;;5.25;1.95;;;;;;;21.51;73.60;101342.48;5041806;57;1138860;-66
2023/08/11 10:32:36;;;;;;;4.37;1.90;;;;;;;21.50;73.37;101338.11;5054472;56;1138754;-66
2023/08/11 10:37:42;;;;;;;3.17;1.30;;;;;;;21.56;75.07;101341.45;5126151;56;1138577;-66
2023/08/11 10:42:47;;;;;;;4.30;1.40;;;;;;;21.64;75.51;101344.14;5147185;56;1138645;-66
2023/08/11 10:47:55;;;;;;;3.45;1.45;;;;;;;21.61;74.93;101342.30;5048633;56;1138886;-66
2023/08/11 10:53:21;;;;;;;2.75;1.60;;;;;;;21.67;74.78;101341.63;5041812;57;1138841;-65
2023/08/11 10:58:27;;;;;;;7.62;1.98;;;;;;;21.60;73.86;101338.76;5062083;57;1138973;-66
2023/08/11 11:03:34;;;;;;;7.05;2.08;;;;;;;21.61;73.30;101327.48;5027687;56;1138704;-65
2023/08/11 11:08:40;;;;;;;3.98;1.57;;;;;;;21.71;73.11;101334.86;4959318;58;1139157;-66
2023/08/11 11:13:46;;;;;;;3.00;1.13;;;;;;;22.04;73.76;101335.64;5061110;56;1138684;-67
2023/08/11 11:18:53;;;;;;;4.62;1.45;;;;;;;21.99;68.76;101332.63;5061972;57;1138707;-66
2023/08/11 11:23:59;;;;;;;3.25;1.27;;;;;;;21.95;71.91;101329.94;5072688;56;1138548;-66
2023/08/11 11:29:07;;;;;;;4.33;1.33;;;;;;;22.24;74.48;101332.05;5074283;56;1138753;-66
2023/08/11 11:34:12;;;;;;;2.35;1.90;;;;;;;22.62;72.98;101346.49;5142153;56;1138798;-66
2023/08/11 11:39:18;;;;;;;3.98;1.35;;;;;;;22.88;71.73;101334.08;5065851;56;1138628;-65
2023/08/11 11:44:24;;;;;;;3.67;1.20;;;;;;;23.11;71.04;101344.34;5074320;56;1139008;-65
2023/08/11 11:49:31;;;;;;;4.50;1.72;;;;;;;23.42;72.82;101336.15;5153871;56;1138616;-65
2023/08/11 11:54:37;;;;;;;3.12;1.67;;;;;;;23.37;67.43;101324.57;5089493;56;1138752;-66
2023/08/11 11:59:43;;;;;;;5.67;1.72;;;;;;;23.28;69.15;101328.34;5092170;56;1138730;-67
2023/08/11 12:04:49;;;;;;;3.25;1.77;;;;;;;23.26;71.48;101322.28;5077291;57;1138698;-66
2023/08/11 12:09:55;;;;;;;2.80;1.70;;;;;;;23.30;71.80;101321.42;5058019;57;1138848;-66
2023/08/11 12:15:10;;;;;;;2.67;1.50;;;;;;;23.29;69.72;101322.44;5065612;56;1138689;-66
2023/08/11 12:20:17;;;;;;;2.15;1.45;;;;;;;23.23;69.36;101320.45;5130553;56;1138629;-67
2023/08/11 12:25:23;;;;;;;4.12;1.92;;;;;;;23.43;68.27;101317.07;5091174;56;1138721;-66
2023/08/11 12:30:28;;;;;;;6.15;1.42;;;;;;;23.43;68.27;101317.07;5081686;56;1138788;-66
2023/08/11 12:35:34;;;;;;;5.15;1.92;;;;;;;23.68;65.55;101316.88;5103455;56;1138677;-66
2023/08/11 12:40:45;;;;;;;4.75;1.60;;;;;;;23.75;65.69;101321.84;5055815;56;1138885;-66
2023/08/11 12:45:51;;;;;;;8.57;1.33;;;;;;;23.65;62.91;101323.48;4921917;58;1138652;-66
2023/08/11 12:50:56;;;;;;;12.93;1.70;;;;;;;23.71;66.66;101321.37;5093418;56;1138793;-66
2023/08/11 12:56:02;;;;;;;5.33;1.35;;;;;;;23.81;67.57;101313.85;5042330;56;1140894;-65
2023/08/11 13:01:08;;;;;;;3.12;1.50;;;;;;;23.60;65.75;101316.43;5047268;56;1138582;-65
2023/08/11 13:06:13;;;;;;;3.22;1.20;;;;;;;23.60;67.76;101319.13;4939888;58;1138657;-66
2023/08/11 13:11:20;;;;;;;4.58;1.60;;;;;;;23.64;68.46;101325.85;5070737;56;1138669;-66
2023/08/11 13:16:26;;;;;;;2.25;1.85;;;;;;;23.61;66.64;101330.27;4918956;58;1138729;-66
2023/08/11 13:21:32;;;;;;;1.45;1.35;;;;;;;23.71;64.59;101328.63;5062018;56;1138610;-66
2023/08/11 13:26:37;;;;;;;2.08;1.42;;;;;;;23.57;64.82;101321.36;5041552;56;1138534;-66
2023/08/11 13:31:43;;;;;;;2.50;1.52;;;;;;;23.36;66.45;101317.49;5093796;56;1138938;-66
2023/08/11 13:36:49;;;;;;;2.27;1.22;;;;;;;23.37;68.31;101308.37;5118472;56;1138931;-67
2023/08/11 13:41:55;;;;;;;6.08;1.80;;;;;;;23.54;67.81;101301.47;5079342;56;1138816;-65
2023/08/11 13:47:01;;;;;;;1.25;1.12;;;;;;;23.82;67.58;101299.32;5080063;56;1138686;-65
2023/08/11 13:52:06;;;;;;;4.42;1.22;;;;;;;24.14;65.52;101301.27;5078335;57;1138731;-66
2023/08/11 13:57:12;;;;;;;1.62;1.47;;;;;;;24.40;60.71;101298.95;5056734;57;1138726;-66
2023/08/11 14:02:18;;;;;;;6.55;1.92;;;;;;;24.47;61.40;101294.95;5065573;56;1138692;-66
2023/08/11 14:07:24;;;;;;;5.85;1.82;;;;;;;24.60;57.07;101292.89;5162514;56;1138614;-65
2023/08/11 14:12:29;;;;;;;5.40;2.00;;;;;;;24.48;57.97;101292.57;5078599;56;1138859;-66
2023/08/11 14:17:35;;;;;;;3.33;1.70;;;;;;;24.36;57.98;101296.80;5084052;56;1138724;-67
2023/08/11 14:22:40;;;;;;;2.75;1.27;;;;;;;24.33;58.30;101295.31;5074544;56;1138772;-66
2023/08/11 14:27:46;;;;;;;1.55;1.17;;;;;;;24.43;59.87;101296.38;5078158;57;1138617;-66
2023/08/11 14:32:51;;;;;;;3.87;2.10;;;;;;;24.61;59.61;101301.34;5075195;56;1138923;-66
2023/08/11 14:37:58;;;;;;;4.37;1.80;;;;;;;24.62;58.89;101303.02;5061835;56;1138609;-66
2023/08/11 14:43:04;;;;;;;3.90;1.75;;;;;;;24.61;56.81;101312.16;5069864;56;1138867;-66
2023/08/11 14:48:10;;;;;;;1.27;1.17;;;;;;;24.75;59.75;101309.39;5125087;56;1138794;-67
2023/08/11 14:53:15;;;;;;;3.33;1.52;;;;;;;24.87;57.50;101303.82;5127142;56;1138681;-66
2023/08/11 14:58:21;;;;;;;3.60;1.45;;;;;;;24.89;58.18;101308.53;5099915;56;1138827;-66
2023/08/11 15:03:26;;;;;;;6.03;1.40;;;;;;;25.00;58.40;101304.48;5044528;56;1138608;-65
2023/08/11 15:08:32;;;;;;;7.20;2.22;;;;;;;25.10;58.29;101317.69;5065221;56;1138678;-66
2023/08/11 15:13:38;;;;;;;3.62;1.92;;;;;;;24.98;56.78;101305.71;4946771;58;1138692;-67
2023/08/11 15:18:43;;;;;;;3.37;1.57;;;;;;;24.95;58.19;101300.68;5070143;56;1138620;-66
2023/08/11 15:23:49;;;;;;;6.85;1.15;;;;;;;24.86;56.93;101299.95;5094169;56;1138860;-65
2023/08/11 15:28:55;;;;;;;7.33;1.67;;;;;;;24.77;59.39;101291.11;5108044;56;1138697;-67
2023/08/11 15:34:00;;;;;;;1.93;1.33;;;;;;;24.76;58.94;101282.67;5085560;56;1139110;-66
2023/08/11 15:39:06;;;;;;;1.72;1.40;;;;;;;24.85;59.05;101284.75;5059033;56;1138667;-66
2023/08/11 15:44:12;;;;;;;5.20;2.00;;;;;;;24.55;58.36;101288.09;5064318;56;1138681;-66
2023/08/11 15:49:17;;;;;;;4.47;1.70;;;;;;;24.55;58.36;101288.09;5073189;57;1138874;-67
2023/08/11 15:54:24;;;;;;;3.12;1.42;;;;;;;24.44;59.69;101271.83;5114566;56;1138891;-67
2023/08/11 15:59:29;;;;;;;2.00;1.32;;;;;;;24.50;58.83;101280.53;5052727;57;1138764;-65
2023/08/11 16:04:35;;;;;;;3.20;1.80;;;;;;;24.52;58.53;101280.34;5072448;56;1138692;-66
2023/08/11 16:09:40;;;;;;;3.58;2.00;;;;;;;24.62;58.85;101275.45;5083593;56;1138769;-66
2023/08/11 16:14:46;;;;;;;2.97;1.20;;;;;;;24.69;60.28;101268.25;5109076;56;1138793;-66
2023/08/11 16:19:52;;;;;;;3.60;1.87;;;;;;;24.76;59.54;101269.14;5071374;56;1138852;-67
2023/08/11 16:24:57;;;;;;;6.05;2.12;;;;;;;24.82;59.88;101266.19;5048507;57;1138728;-65
2023/08/11 16:30:03;;;;;;;3.03;1.93;;;;;;;24.88;58.80;101268.13;5049081;57;1138756;-66
2023/08/11 16:35:09;;;;;;;10.35;1.98;;;;;;;24.79;58.72;101266.05;5121902;56;1138769;-65
2023/08/11 16:40:15;;;;;;;2.52;1.70;;;;;;;24.85;59.66;101258.53;5112970;56;1140983;-65
2023/08/11 16:45:20;;;;;;;2.00;1.60;;;;;;;24.87;57.46;101263.75;5074789;56;1138873;-66
2023/08/11 16:50:26;;;;;;;10.70;2.65;;;;;;;24.84;59.34;101260.07;4996266;58;1139055;-65
2023/08/11 16:55:31;;;;;;;6.80;2.10;;;;;;;24.82;59.35;101264.83;4997890;58;1141014;-66
2023/08/11 17:00:37;;;;;;;6.87;1.80;;;;;;;24.82;59.13;101267.54;5120522;56;1138717;-65
2023/08/11 17:05:43;;;;;;;1.87;1.40;;;;;;;24.72;60.21;101267.87;5092132;56;1138866;-65
2023/08/11 17:10:48;;;;;;;7.95;3.62;;;;;;;24.61;60.49;101264.30;5062079;57;1138831;-66
2023/08/11 17:15:54;;;;;;;4.00;2.14;;;;;;;24.46;61.53;101255.41;5043066;57;1138723;-65
2023/08/11 17:21:00;;;;;;;5.62;1.65;;;;;;;24.38;62.50;101265.01;5060174;57;1138586;-66
2023/08/11 17:26:06;;;;;;;3.00;2.20;;;;;;;24.29;62.29;101260.21;5039060;57;1139075;-66
2023/08/11 17:31:11;;;;;;;7.37;2.12;;;;;;;24.15;62.61;101259.19;5042863;57;1138804;-66
2023/08/11 17:36:18;;;;;;;3.10;1.60;;;;;;;24.03;63.23;101266.11;5118705;56;1138774;-66
2023/08/11 17:41:26;;;;;;;3.98;2.12;;;;;;;23.92;63.93;101261.20;5072307;57;1138970;-67
2023/08/11 17:46:32;;;;;;;7.30;2.00;;;;;;;23.82;63.81;101266.90;5083311;56;1138853;-65
2023/08/11 17:51:37;;;;;;;3.85;2.75;;;;;;;23.77;64.39;101273.37;5053636;57;1138806;-66
2023/08/11 17:56:43;;;;;;;6.66;4.10;;;;;;;23.72;65.13;101277.13;5052175;57;1138709;-66
2023/08/11 18:01:48;;;;;;;9.95;5.83;;;;;;;23.73;66.99;101284.72;5095180;56;1138849;-66
2023/08/11 18:06:55;;;;;;;15.70;7.40;;;;;;;23.76;68.36;101281.66;5053475;57;1138707;-66
2023/08/11 18:12:01;;;;;;;18.55;5.62;;;;;;;23.71;68.50;101284.06;5073128;57;1140810;-66
2023/08/11 18:17:06;;;;;;;5.70;3.45;;;;;;;23.66;69.35;101293.26;5097540;56;1140917;-66
2023/08/11 18:22:12;;;;;;;12.82;3.50;;;;;;;23.57;70.28;101300.59;5078813;56;1138704;-66
2023/08/11 18:27:17;;;;;;;15.50;5.45;;;;;;;23.38;70.77;101301.08;5053670;57;1140731;-65
2023/08/11 18:32:23;;;;;;;23.50;5.83;;;;;;;23.14;71.65;101311.09;5080947;56;1140932;-66
2023/08/11 18:37:29;;;;;;;30.82;4.90;;;;;;;23.00;72.79;101320.49;5108353;56;1141005;-66
2023/08/11 18:42:35;;;;;;;23.90;4.50;;;;;;;22.82;73.84;101322.13;5087210;56;1140971;-65
2023/08/11 18:47:41;;;;;;;40.80;4.50;;;;;;;22.60;74.42;101317.55;5057589;57;1140912;-66
2023/08/11 18:52:48;;;;;;;23.02;4.10;;;;;;;22.28;76.45;101319.91;5076534;57;1140959;-65
2023/08/11 18:57:53;;;;;;;7.58;4.35;;;;;;;22.28;76.45;101319.91;5057190;56;1141082;-65
2023/08/11 19:02:59;;;;;;;6.87;4.08;;;;;;;22.16;77.04;101326.67;5089568;56;1138735;-66
2023/08/11 19:08:06;;;;;;;7.25;5.30;;;;;;;22.09;77.93;101327.39;5077851;56;1138801;-65
2023/08/11 19:13:12;;;;;;;10.48;5.95;;;;;;;22.00;78.41;101324.38;5083673;56;1138724;-65
2023/08/11 19:18:18;;;;;;;9.40;4.90;;;;;;;21.95;79.07;101330.78;5142522;56;1140944;-66
2023/08/11 19:23:23;;;;;;;6.70;4.03;;;;;;;21.83;79.43;101332.16;5097067;56;1138798;-66
2023/08/11 19:28:35;;;;;;;26.95;6.72;;;;;;;21.71;80.08;101336.20;5058211;56;1138886;-65
2023/08/11 19:33:36;;;;;;;15.68;7.00;;;;;;;21.58;80.67;101339.43;5086357;56;1140788;-66
2023/08/11 19:38:43;;;;;;;10.82;5.45;;;;;;;21.35;82.53;101329.05;5142592;56;1140827;-66
2023/08/11 19:43:48;;;;;;;12.78;7.37;;;;;;;21.35;82.53;101329.05;5127442;56;1140975;-65
2023/08/11 19:48:54;;;;;;;10.10;5.15;;;;;;;21.17;82.73;101337.75;5057929;56;1140887;-67
2023/08/11 19:54:00;;;;;;;20.27;7.45;;;;;;;20.97;83.17;101337.23;5047229;56;1140810;-67
2023/08/11 19:59:06;;;;;;;16.20;6.85;;;;;;;20.90;84.13;101337.58;5079058;56;1141106;-65
2023/08/11 20:04:12;;;;;;;22.07;7.90;;;;;;;20.84;84.63;101328.31;5053249;56;1140843;-66
2023/08/11 20:09:19;;;;;;;15.28;5.50;;;;;;;20.59;85.06;101334.66;5044333;56;1140916;-67
2023/08/11 20:14:25;;;;;;;12.70;6.80;;;;;;;20.59;85.06;101334.66;5092531;56;1140784;-66
2023/08/11 20:19:30;;;;;;;24.98;9.68;;;;;;;20.45;85.69;101323.20;5085666;56;1140971;-66
2023/08/11 20:24:36;;;;;;;25.85;15.25;;;;;;;20.41;86.50;101325.86;4931268;57;1140783;-66
2023/08/11 20:29:41;;;;;;;33.18;16.10;;;;;;;20.32;86.61;101323.59;5114832;56;1142885;-67
2023/08/11 20:34:47;;;;;;;32.42;15.78;;;;;;;20.30;87.46;101320.27;5113626;56;1143027;-66
2023/08/11 20:39:53;;;;;;;23.62;12.15;;;;;;;20.12;87.28;101325.73;5047391;56;1142763;-66
2023/08/11 20:44:58;;;;;;;28.27;14.85;;;;;;;19.93;87.47;101317.41;5048676;56;1143097;-66
2023/08/11 20:50:04;;;;;;;25.48;14.05;;;;;;;19.82;88.37;101321.72;5030248;57;1142830;-66
2023/08/11 20:55:10;;;;;;;18.05;10.05;;;;;;;19.72;88.97;101332.20;5042197;57;1142862;-66
2023/08/11 21:00:16;;;;;;;12.07;4.90;;;;;;;19.65;89.43;101330.67;5041870;57;1143053;-66
2023/08/11 21:05:22;;;;;;;14.00;6.12;;;;;;;19.60;89.69;101324.42;5061194;57;1140760;-66
2023/08/11 21:10:27;;;;;;;15.08;8.13;;;;;;;19.56;90.45;101323.55;5042223;57;1141067;-67
2023/08/11 21:15:33;;;;;;;16.37;6.28;;;;;;;19.50;90.54;101312.97;5042382;56;1141000;-66
2023/08/11 21:20:39;;;;;;;10.50;4.48;;;;;;;19.46;90.90;101312.06;5047645;57;1141102;-67
2023/08/11 21:25:45;;;;;;;13.20;6.50;;;;;;;19.39;90.97;101313.70;5151591;55;1140918;-66
2023/08/11 21:30:53;;;;;;;15.16;8.82;;;;;;;19.28;91.04;101310.25;5083200;56;1140873;-66
2023/08/11 21:35:59;;;;;;;11.20;5.03;;;;;;;19.14;91.21;101305.45;5111971;56;1140708;-66
2023/08/11 21:41:05;;;;;;;9.20;5.67;;;;;;;19.06;91.64;101301.37;5146610;56;1140960;-66
2023/08/11 21:46:11;;;;;;;10.58;4.47;;;;;;;19.02;92.27;101295.13;5131990;56;1138746;-66
2023/08/11 21:51:17;;;;;;;6.47;5.00;;;;;;;19.00;92.78;101306.00;5063651;56;1140756;-66
2023/08/11 21:56:24;;;;;;;12.10;7.17;;;;;;;18.99;93.30;101306.99;5073377;56;1138724;-65
2023/08/11 22:01:30;;;;;;;17.42;6.40;;;;;;;18.99;93.69;101312.36;5054062;56;1140952;-66
2023/08/11 22:06:35;;;;;;;12.82;4.45;;;;;;;18.81;92.86;101307.49;5053271;57;1140715;-66
2023/08/11 22:11:41;;;;;;;12.80;5.25;;;;;;;18.63;92.92;101302.65;5053473;57;1141054;-65
2023/08/11 22:16:47;;;;;;;10.32;4.50;;;;;;;18.46;93.30;101307.80;5073540;57;1140993;-66
2023/08/11 22:21:53;;;;;;;6.15;3.77;;;;;;;18.42;94.19;101310.42;5131866;56;1140844;-66
2023/08/11 22:26:59;;;;;;;6.17;4.60;;;;;;;18.45;94.35;101309.29;5074714;56;1138810;-65
2023/08/11 22:32:05;;;;;;;10.28;5.38;;;;;;;18.34;94.16;101316.17;5064621;56;1147814;-67
2023/08/11 22:37:11;;;;;;;6.37;4.22;;;;;;;18.31;94.90;101317.34;5129444;56;1140882;-66
2023/08/11 22:42:22;;;;;;;10.85;3.77;;;;;;;18.27;95.20;101318.63;5134366;56;1138749;-66
2023/08/11 22:47:27;;;;;;;5.50;3.17;;;;;;;18.22;95.44;101311.52;5140653;56;1141165;-66
2023/08/11 22:52:33;;;;;;;12.70;3.42;;;;;;;18.14;95.19;101314.95;5053649;57;1138772;-65
2023/08/11 22:57:38;;;;;;;10.65;4.03;;;;;;;18.12;95.55;101315.59;5053075;56;1140903;-66
2023/08/11 23:02:44;;;;;;;8.72;4.14;;;;;;;18.11;95.56;101324.62;5053427;57;1140865;-65